sensor_id;sensor_type;location;lat;lon;timestamp;P1;durP1;ratioP1;P2;durP2;ratioP2
20076;SDS011;12348;42.710;23.378;2023-08-06T00:03:50;7.27;;;3.33;;
20076;SDS011;12348;42.710;23.378;2023-08-06T00:06:16;5.60;;;3.53;;
20076;SDS011;12348;42.710;23.378;2023-08-06T00:08:45;5.00;;;3.60;;
20076;SDS011;12348;42.710;23.378;2023-08-06T00:11:11;7.73;;;4.20;;
20076;SDS011;12348;42.710;23.378;2023-08-06T00:13:38;8.43;;;4.33;;
20076;SDS011;12348;42.710;23.378;2023-08-06T00:16:09;6.50;;;4.40;;
20076;SDS011;12348;42.710;23.378;2023-08-06T00:18:36;6.47;;;4.10;;
20076;SDS011;12348;42.710;23.378;2023-08-06T00:21:03;7.07;;;4.53;;
20076;SDS011;12348;42.710;23.378;2023-08-06T00:23:30;8.73;;;4.43;;
20076;SDS011;12348;42.710;23.378;2023-08-06T00:25:58;6.67;;;3.80;;
20076;SDS011;12348;42.710;23.378;2023-08-06T00:28:24;6.20;;;3.93;;
20076;SDS011;12348;42.710;23.378;2023-08-06T00:30:52;6.50;;;3.93;;
20076;SDS011;12348;42.710;23.378;2023-08-06T00:33:19;10.20;;;4.27;;
20076;SDS011;12348;42.710;23.378;2023-08-06T00:35:46;9.20;;;4.17;;
20076;SDS011;12348;42.710;23.378;2023-08-06T00:38:13;5.80;;;4.23;;
20076;SDS011;12348;42.710;23.378;2023-08-06T00:40:39;7.03;;;4.73;;
20076;SDS011;12348;42.710;23.378;2023-08-06T00:43:07;11.53;;;5.13;;
20076;SDS011;12348;42.710;23.378;2023-08-06T00:45:35;9.07;;;4.50;;
20076;SDS011;12348;42.710;23.378;2023-08-06T00:48:03;9.80;;;4.60;;
20076;SDS011;12348;42.710;23.378;2023-08-06T00:50:31;8.63;;;4.50;;
20076;SDS011;12348;42.710;23.378;2023-08-06T00:52:58;10.23;;;4.90;;
20076;SDS011;12348;42.710;23.378;2023-08-06T00:55:26;9.50;;;5.03;;
20076;SDS011;12348;42.710;23.378;2023-08-06T00:57:52;7.00;;;4.67;;
20076;SDS011;12348;42.710;23.378;2023-08-06T01:00:23;7.57;;;4.67;;
20076;SDS011;12348;42.710;23.378;2023-08-06T01:02:51;8.63;;;5.47;;
20076;SDS011;12348;42.710;23.378;2023-08-06T01:05:18;10.53;;;5.20;;
20076;SDS011;12348;42.710;23.378;2023-08-06T01:07:48;9.83;;;5.60;;
20076;SDS011;12348;42.710;23.378;2023-08-06T01:10:30;9.93;;;6.73;;
20076;SDS011;12348;42.710;23.378;2023-08-06T01:13:08;8.40;;;5.73;;
20076;SDS011;12348;42.710;23.378;2023-08-06T01:15:45;10.10;;;6.73;;
20076;SDS011;12348;42.710;23.378;2023-08-06T01:18:14;10.30;;;6.47;;
20076;SDS011;12348;42.710;23.378;2023-08-06T01:20:42;11.37;;;6.77;;
20076;SDS011;12348;42.710;23.378;2023-08-06T01:23:09;16.20;;;6.90;;
20076;SDS011;12348;42.710;23.378;2023-08-06T01:25:38;9.80;;;6.23;;
20076;SDS011;12348;42.710;23.378;2023-08-06T01:28:15;9.70;;;6.60;;
20076;SDS011;12348;42.710;23.378;2023-08-06T01:30:49;6.87;;;5.50;;
20076;SDS011;12348;42.710;23.378;2023-08-06T01:33:18;8.03;;;5.80;;
20076;SDS011;12348;42.710;23.378;2023-08-06T01:35:49;9.27;;;5.90;;
20076;SDS011;12348;42.710;23.378;2023-08-06T01:38:17;9.50;;;5.83;;
20076;SDS011;12348;42.710;23.378;2023-08-06T01:40:43;9.00;;;5.60;;
20076;SDS011;12348;42.710;23.378;2023-08-06T01:43:10;9.50;;;5.00;;
20076;SDS011;12348;42.710;23.378;2023-08-06T01:45:37;10.63;;;5.43;;
20076;SDS011;12348;42.710;23.378;2023-08-06T01:48:04;9.73;;;4.40;;
20076;SDS011;12348;42.710;23.378;2023-08-06T01:50:30;7.90;;;4.53;;
20076;SDS011;12348;42.710;23.378;2023-08-06T01:52:58;9.53;;;4.73;;
20076;SDS011;12348;42.710;23.378;2023-08-06T01:55:25;8.40;;;4.87;;
20076;SDS011;12348;42.710;23.378;2023-08-06T01:57:52;7.10;;;4.63;;
20076;SDS011;12348;42.710;23.378;2023-08-06T02:00:18;6.43;;;4.40;;
20076;SDS011;12348;42.710;23.378;2023-08-06T02:02:45;6.93;;;4.57;;
20076;SDS011;12348;42.710;23.378;2023-08-06T02:05:12;6.87;;;4.40;;
20076;SDS011;12348;42.710;23.378;2023-08-06T02:07:39;6.87;;;4.23;;
20076;SDS011;12348;42.710;23.378;2023-08-06T02:10:08;6.10;;;4.40;;
20076;SDS011;12348;42.710;23.378;2023-08-06T02:12:34;6.57;;;4.63;;
20076;SDS011;12348;42.710;23.378;2023-08-06T02:15:01;6.27;;;4.40;;
20076;SDS011;12348;42.710;23.378;2023-08-06T02:17:28;6.20;;;4.40;;
20076;SDS011;12348;42.710;23.378;2023-08-06T02:19:55;10.43;;;4.90;;
20076;SDS011;12348;42.710;23.378;2023-08-06T02:22:22;5.80;;;4.60;;
20076;SDS011;12348;42.710;23.378;2023-08-06T02:24:49;9.00;;;4.57;;
20076;SDS011;12348;42.710;23.378;2023-08-06T02:27:17;8.47;;;5.07;;
20076;SDS011;12348;42.710;23.378;2023-08-06T02:29:44;8.57;;;5.20;;
20076;SDS011;12348;42.710;23.378;2023-08-06T02:32:11;4.73;;;3.87;;
20076;SDS011;12348;42.710;23.378;2023-08-06T02:34:37;7.20;;;4.47;;
20076;SDS011;12348;42.710;23.378;2023-08-06T02:37:04;9.57;;;5.17;;
20076;SDS011;12348;42.710;23.378;2023-08-06T02:39:31;9.90;;;4.57;;
20076;SDS011;12348;42.710;23.378;2023-08-06T02:41:58;9.83;;;4.43;;
20076;SDS011;12348;42.710;23.378;2023-08-06T02:44:28;6.97;;;4.43;;
20076;SDS011;12348;42.710;23.378;2023-08-06T02:46:54;8.27;;;4.87;;
20076;SDS011;12348;42.710;23.378;2023-08-06T02:49:21;9.07;;;4.77;;
20076;SDS011;12348;42.710;23.378;2023-08-06T02:51:48;6.07;;;3.90;;
20076;SDS011;12348;42.710;23.378;2023-08-06T02:54:15;5.27;;;3.47;;
20076;SDS011;12348;42.710;23.378;2023-08-06T02:56:42;7.87;;;4.00;;
20076;SDS011;12348;42.710;23.378;2023-08-06T02:59:10;7.63;;;4.60;;
20076;SDS011;12348;42.710;23.378;2023-08-06T03:01:38;6.57;;;4.23;;
20076;SDS011;12348;42.710;23.378;2023-08-06T03:04:05;10.03;;;4.80;;
20076;SDS011;12348;42.710;23.378;2023-08-06T03:06:32;8.20;;;5.00;;
20076;SDS011;12348;42.710;23.378;2023-08-06T03:08:59;9.67;;;6.10;;
20076;SDS011;12348;42.710;23.378;2023-08-06T03:11:26;11.20;;;6.40;;
20076;SDS011;12348;42.710;23.378;2023-08-06T03:13:52;10.80;;;7.17;;
20076;SDS011;12348;42.710;23.378;2023-08-06T03:16:19;11.10;;;6.90;;
20076;SDS011;12348;42.710;23.378;2023-08-06T03:18:47;8.40;;;6.73;;
20076;SDS011;12348;42.710;23.378;2023-08-06T03:21:14;11.63;;;6.40;;
20076;SDS011;12348;42.710;23.378;2023-08-06T03:23:40;7.27;;;4.80;;
20076;SDS011;12348;42.710;23.378;2023-08-06T03:26:07;10.83;;;5.87;;
20076;SDS011;12348;42.710;23.378;2023-08-06T03:28:34;9.87;;;5.70;;
20076;SDS011;12348;42.710;23.378;2023-08-06T03:31:01;8.87;;;5.37;;
20076;SDS011;12348;42.710;23.378;2023-08-06T03:33:28;9.37;;;6.30;;
20076;SDS011;12348;42.710;23.378;2023-08-06T03:35:56;13.33;;;6.53;;
20076;SDS011;12348;42.710;23.378;2023-08-06T03:38:23;11.67;;;6.40;;
20076;SDS011;12348;42.710;23.378;2023-08-06T03:40:50;8.87;;;6.03;;
20076;SDS011;12348;42.710;23.378;2023-08-06T03:43:17;8.53;;;5.43;;
20076;SDS011;12348;42.710;23.378;2023-08-06T03:45:43;11.90;;;6.73;;
20076;SDS011;12348;42.710;23.378;2023-08-06T03:48:10;11.70;;;7.17;;
20076;SDS011;12348;42.710;23.378;2023-08-06T03:50:37;12.17;;;9.20;;
20076;SDS011;12348;42.710;23.378;2023-08-06T03:53:05;13.83;;;8.70;;
20076;SDS011;12348;42.710;23.378;2023-08-06T03:55:32;11.43;;;8.67;;
20076;SDS011;12348;42.710;23.378;2023-08-06T03:57:59;13.03;;;9.80;;
20076;SDS011;12348;42.710;23.378;2023-08-06T04:00:26;13.73;;;10.17;;
20076;SDS011;12348;42.710;23.378;2023-08-06T04:02:52;18.30;;;12.37;;
20076;SDS011;12348;42.710;23.378;2023-08-06T04:05:19;18.60;;;12.37;;
20076;SDS011;12348;42.710;23.378;2023-08-06T04:07:46;14.63;;;10.07;;
20076;SDS011;12348;42.710;23.378;2023-08-06T04:10:14;14.23;;;10.47;;
20076;SDS011;12348;42.710;23.378;2023-08-06T04:12:41;18.73;;;13.13;;
20076;SDS011;12348;42.710;23.378;2023-08-06T04:15:08;16.87;;;11.60;;
20076;SDS011;12348;42.710;23.378;2023-08-06T04:17:34;15.70;;;11.67;;
20076;SDS011;12348;42.710;23.378;2023-08-06T04:20:01;14.00;;;10.30;;
20076;SDS011;12348;42.710;23.378;2023-08-06T04:22:29;13.00;;;8.80;;
20076;SDS011;12348;42.710;23.378;2023-08-06T04:24:55;11.47;;;6.73;;
20076;SDS011;12348;42.710;23.378;2023-08-06T04:27:24;12.63;;;7.87;;
20076;SDS011;12348;42.710;23.378;2023-08-06T04:29:50;11.63;;;7.43;;
20076;SDS011;12348;42.710;23.378;2023-08-06T04:32:17;11.67;;;8.13;;
20076;SDS011;12348;42.710;23.378;2023-08-06T04:34:44;11.43;;;6.63;;
20076;SDS011;12348;42.710;23.378;2023-08-06T04:37:11;11.23;;;6.40;;
20076;SDS011;12348;42.710;23.378;2023-08-06T04:39:38;12.17;;;6.93;;
20076;SDS011;12348;42.710;23.378;2023-08-06T04:42:05;9.37;;;6.17;;
20076;SDS011;12348;42.710;23.378;2023-08-06T04:44:34;10.60;;;6.80;;
20076;SDS011;12348;42.710;23.378;2023-08-06T04:47:00;9.20;;;6.17;;
20076;SDS011;12348;42.710;23.378;2023-08-06T04:49:27;9.80;;;6.37;;
20076;SDS011;12348;42.710;23.378;2023-08-06T04:51:54;10.07;;;6.57;;
20076;SDS011;12348;42.710;23.378;2023-08-06T04:54:21;7.97;;;5.63;;
20076;SDS011;12348;42.710;23.378;2023-08-06T04:56:47;8.17;;;5.53;;
20076;SDS011;12348;42.710;23.378;2023-08-06T04:59:14;6.97;;;5.10;;
20076;SDS011;12348;42.710;23.378;2023-08-06T05:01:42;7.97;;;5.80;;
20076;SDS011;12348;42.710;23.378;2023-08-06T05:04:09;8.97;;;5.40;;
20076;SDS011;12348;42.710;23.378;2023-08-06T05:06:36;7.53;;;5.20;;
20076;SDS011;12348;42.710;23.378;2023-08-06T05:09:03;9.97;;;5.33;;
20076;SDS011;12348;42.710;23.378;2023-08-06T05:11:31;9.60;;;5.03;;
20076;SDS011;12348;42.710;23.378;2023-08-06T05:13:58;11.87;;;7.53;;
20076;SDS011;12348;42.710;23.378;2023-08-06T05:16:24;22.03;;;13.80;;
20076;SDS011;12348;42.710;23.378;2023-08-06T05:18:53;9.20;;;6.03;;
20076;SDS011;12348;42.710;23.378;2023-08-06T05:21:19;7.20;;;5.60;;
20076;SDS011;12348;42.710;23.378;2023-08-06T05:23:46;7.00;;;5.23;;
20076;SDS011;12348;42.710;23.378;2023-08-06T05:26:13;6.03;;;4.57;;
20076;SDS011;12348;42.710;23.378;2023-08-06T05:28:43;5.40;;;3.83;;
20076;SDS011;12348;42.710;23.378;2023-08-06T05:31:10;4.50;;;3.23;;
20076;SDS011;12348;42.710;23.378;2023-08-06T05:33:37;4.30;;;3.60;;
20076;SDS011;12348;42.710;23.378;2023-08-06T05:36:05;5.40;;;3.37;;
20076;SDS011;12348;42.710;23.378;2023-08-06T05:38:32;5.63;;;3.67;;
20076;SDS011;12348;42.710;23.378;2023-08-06T05:40:59;5.17;;;4.60;;
20076;SDS011;12348;42.710;23.378;2023-08-06T05:43:25;4.20;;;3.80;;
20076;SDS011;12348;42.710;23.378;2023-08-06T05:45:53;4.97;;;3.27;;
20076;SDS011;12348;42.710;23.378;2023-08-06T05:48:20;10.03;;;3.10;;
20076;SDS011;12348;42.710;23.378;2023-08-06T05:50:49;3.03;;;2.73;;
20076;SDS011;12348;42.710;23.378;2023-08-06T05:53:18;3.53;;;2.80;;
20076;SDS011;12348;42.710;23.378;2023-08-06T05:55:44;5.27;;;2.70;;
20076;SDS011;12348;42.710;23.378;2023-08-06T05:58:11;4.97;;;2.47;;
20076;SDS011;12348;42.710;23.378;2023-08-06T06:00:38;5.80;;;4.93;;
20076;SDS011;12348;42.710;23.378;2023-08-06T06:03:05;4.00;;;3.10;;
20076;SDS011;12348;42.710;23.378;2023-08-06T06:05:31;3.83;;;3.00;;
20076;SDS011;12348;42.710;23.378;2023-08-06T06:07:58;4.67;;;2.83;;
20076;SDS011;12348;42.710;23.378;2023-08-06T06:10:26;3.40;;;2.37;;
20076;SDS011;12348;42.710;23.378;2023-08-06T06:12:53;1.77;;;1.53;;
20076;SDS011;12348;42.710;23.378;2023-08-06T06:15:19;1.40;;;0.93;;
20076;SDS011;12348;42.710;23.378;2023-08-06T06:17:46;0.40;;;0.33;;
20076;SDS011;12348;42.710;23.378;2023-08-06T06:20:13;0.40;;;0.40;;
20076;SDS011;12348;42.710;23.378;2023-08-06T06:22:40;0.40;;;0.20;;
20076;SDS011;12348;42.710;23.378;2023-08-06T06:25:07;2.70;;;1.87;;
20076;SDS011;12348;42.710;23.378;2023-08-06T06:27:36;3.83;;;2.10;;
20076;SDS011;12348;42.710;23.378;2023-08-06T06:30:03;0.20;;;0.20;;
20076;SDS011;12348;42.710;23.378;2023-08-06T06:32:30;0.20;;;0.20;;
20076;SDS011;12348;42.710;23.378;2023-08-06T06:34:56;0.20;;;0.20;;
20076;SDS011;12348;42.710;23.378;2023-08-06T06:37:24;0.23;;;0.20;;
20076;SDS011;12348;42.710;23.378;2023-08-06T06:39:51;0.00;;;0.00;;
20076;SDS011;12348;42.710;23.378;2023-08-06T06:42:18;0.00;;;0.00;;
20076;SDS011;12348;42.710;23.378;2023-08-06T06:44:46;1.10;;;0.50;;
20076;SDS011;12348;42.710;23.378;2023-08-06T06:47:15;0.60;;;0.50;;
20076;SDS011;12348;42.710;23.378;2023-08-06T06:49:42;0.90;;;0.53;;
20076;SDS011;12348;42.710;23.378;2023-08-06T06:52:08;0.70;;;0.40;;
20076;SDS011;12348;42.710;23.378;2023-08-06T06:54:36;0.07;;;0.07;;
20076;SDS011;12348;42.710;23.378;2023-08-06T06:57:03;0.97;;;0.47;;
20076;SDS011;12348;42.710;23.378;2023-08-06T06:59:31;0.20;;;0.20;;
20076;SDS011;12348;42.710;23.378;2023-08-06T07:01:59;0.00;;;0.00;;
20076;SDS011;12348;42.710;23.378;2023-08-06T07:04:26;0.00;;;0.00;;
20076;SDS011;12348;42.710;23.378;2023-08-06T07:06:52;0.10;;;0.10;;
20076;SDS011;12348;42.710;23.378;2023-08-06T07:09:19;1.40;;;0.88;;
20076;SDS011;12348;42.710;23.378;2023-08-06T07:11:46;0.10;;;0.10;;
20076;SDS011;12348;42.710;23.378;2023-08-06T07:14:12;0.00;;;0.00;;
20076;SDS011;12348;42.710;23.378;2023-08-06T07:16:40;1.20;;;0.40;;
20076;SDS011;12348;42.710;23.378;2023-08-06T07:19:08;0.70;;;0.65;;
20076;SDS011;12348;42.710;23.378;2023-08-06T07:21:35;6.57;;;2.43;;
20076;SDS011;12348;42.710;23.378;2023-08-06T07:24:01;0.00;;;0.00;;
20076;SDS011;12348;42.710;23.378;2023-08-06T07:26:28;0.20;;;0.20;;
20076;SDS011;12348;42.710;23.378;2023-08-06T07:28:55;0.37;;;0.30;;
20076;SDS011;12348;42.710;23.378;2023-08-06T07:31:22;0.70;;;0.70;;
20076;SDS011;12348;42.710;23.378;2023-08-06T07:33:49;0.05;;;0.05;;
20076;SDS011;12348;42.710;23.378;2023-08-06T07:36:17;0.55;;;0.45;;
20076;SDS011;12348;42.710;23.378;2023-08-06T07:38:44;0.10;;;0.10;;
20076;SDS011;12348;42.710;23.378;2023-08-06T07:41:10;0.08;;;0.08;;
20076;SDS011;12348;42.710;23.378;2023-08-06T07:43:37;0.28;;;0.28;;
20076;SDS011;12348;42.710;23.378;2023-08-06T07:46:04;0.00;;;0.00;;
20076;SDS011;12348;42.710;23.378;2023-08-06T07:48:31;0.50;;;0.50;;
20076;SDS011;12348;42.710;23.378;2023-08-06T07:50:57;0.10;;;0.10;;
20076;SDS011;12348;42.710;23.378;2023-08-06T07:53:26;0.15;;;0.15;;
20076;SDS011;12348;42.710;23.378;2023-08-06T07:55:54;0.45;;;0.40;;
20076;SDS011;12348;42.710;23.378;2023-08-06T07:58:22;0.05;;;0.05;;
20076;SDS011;12348;42.710;23.378;2023-08-06T08:00:50;0.10;;;0.10;;
20076;SDS011;12348;42.710;23.378;2023-08-06T08:03:17;0.63;;;0.60;;
20076;SDS011;12348;42.710;23.378;2023-08-06T08:05:44;1.73;;;0.70;;
20076;SDS011;12348;42.710;23.378;2023-08-06T08:08:11;5.30;;;1.65;;
20076;SDS011;12348;42.710;23.378;2023-08-06T08:10:39;2.10;;;1.70;;
20076;SDS011;12348;42.710;23.378;2023-08-06T08:13:06;0.10;;;0.10;;
20076;SDS011;12348;42.710;23.378;2023-08-06T08:15:33;1.95;;;0.65;;
20076;SDS011;12348;42.710;23.378;2023-08-06T08:18:00;2.65;;;0.32;;
20076;SDS011;12348;42.710;23.378;2023-08-06T08:20:27;0.00;;;0.00;;
20076;SDS011;12348;42.710;23.378;2023-08-06T08:22:57;0.35;;;0.35;;
20076;SDS011;12348;42.710;23.378;2023-08-06T08:25:25;0.10;;;0.10;;
20076;SDS011;12348;42.710;23.378;2023-08-06T08:27:54;0.17;;;0.17;;
20076;SDS011;12348;42.710;23.378;2023-08-06T08:30:21;0.13;;;0.13;;
20076;SDS011;12348;42.710;23.378;2023-08-06T08:32:50;2.97;;;1.92;;
20076;SDS011;12348;42.710;23.378;2023-08-06T08:35:16;0.00;;;0.00;;
20076;SDS011;12348;42.710;23.378;2023-08-06T08:37:43;0.50;;;0.50;;
20076;SDS011;12348;42.710;23.378;2023-08-06T08:40:10;0.00;;;0.00;;
20076;SDS011;12348;42.710;23.378;2023-08-06T08:42:37;0.10;;;0.10;;
20076;SDS011;12348;42.710;23.378;2023-08-06T08:45:06;0.43;;;0.40;;
20076;SDS011;12348;42.710;23.378;2023-08-06T08:47:38;0.63;;;0.20;;
20076;SDS011;12348;42.710;23.378;2023-08-06T08:50:06;0.10;;;0.10;;
20076;SDS011;12348;42.710;23.378;2023-08-06T08:52:35;0.00;;;0.00;;
20076;SDS011;12348;42.710;23.378;2023-08-06T08:55:05;1.17;;;0.63;;
20076;SDS011;12348;42.710;23.378;2023-08-06T08:57:33;6.03;;;1.47;;
20076;SDS011;12348;42.710;23.378;2023-08-06T09:00:00;0.47;;;0.47;;
20076;SDS011;12348;42.710;23.378;2023-08-06T09:02:29;0.00;;;0.00;;
20076;SDS011;12348;42.710;23.378;2023-08-06T09:04:59;0.47;;;0.47;;
20076;SDS011;12348;42.710;23.378;2023-08-06T09:07:27;0.45;;;0.10;;
20076;SDS011;12348;42.710;23.378;2023-08-06T09:09:58;0.10;;;0.10;;
20076;SDS011;12348;42.710;23.378;2023-08-06T09:12:28;0.00;;;0.00;;
20076;SDS011;12348;42.710;23.378;2023-08-06T09:14:55;0.00;;;0.00;;
20076;SDS011;12348;42.710;23.378;2023-08-06T09:17:22;1.35;;;0.35;;
20076;SDS011;12348;42.710;23.378;2023-08-06T09:19:50;0.17;;;0.15;;
20076;SDS011;12348;42.710;23.378;2023-08-06T09:22:17;1.20;;;0.88;;
20076;SDS011;12348;42.710;23.378;2023-08-06T09:24:44;0.13;;;0.13;;
20076;SDS011;12348;42.710;23.378;2023-08-06T09:27:11;0.20;;;0.20;;
20076;SDS011;12348;42.710;23.378;2023-08-06T09:29:42;1.45;;;1.20;;
20076;SDS011;12348;42.710;23.378;2023-08-06T09:32:10;0.80;;;0.55;;
20076;SDS011;12348;42.710;23.378;2023-08-06T09:34:38;0.00;;;0.00;;
20076;SDS011;12348;42.710;23.378;2023-08-06T09:37:08;1.45;;;1.35;;
20076;SDS011;12348;42.710;23.378;2023-08-06T09:39:37;0.10;;;0.10;;
20076;SDS011;12348;42.710;23.378;2023-08-06T09:42:04;0.25;;;0.20;;
20076;SDS011;12348;42.710;23.378;2023-08-06T09:44:32;0.08;;;0.08;;
20076;SDS011;12348;42.710;23.378;2023-08-06T09:46:59;0.32;;;0.32;;
20076;SDS011;12348;42.710;23.378;2023-08-06T09:49:27;0.45;;;0.40;;
20076;SDS011;12348;42.710;23.378;2023-08-06T09:52:09;0.13;;;0.13;;
20076;SDS011;12348;42.710;23.378;2023-08-06T09:54:38;0.95;;;0.65;;
20076;SDS011;12348;42.710;23.378;2023-08-06T09:57:05;0.32;;;0.32;;
20076;SDS011;12348;42.710;23.378;2023-08-06T09:59:32;0.30;;;0.30;;
20076;SDS011;12348;42.710;23.378;2023-08-06T10:01:59;2.53;;;0.52;;
20076;SDS011;12348;42.710;23.378;2023-08-06T10:04:26;0.10;;;0.10;;
20076;SDS011;12348;42.710;23.378;2023-08-06T10:06:55;0.10;;;0.10;;
20076;SDS011;12348;42.710;23.378;2023-08-06T10:09:26;0.57;;;0.43;;
20076;SDS011;12348;42.710;23.378;2023-08-06T10:11:52;2.08;;;1.05;;
20076;SDS011;12348;42.710;23.378;2023-08-06T10:14:22;0.20;;;0.20;;
20076;SDS011;12348;42.710;23.378;2023-08-06T10:16:52;0.83;;;0.63;;
20076;SDS011;12348;42.710;23.378;2023-08-06T10:19:20;0.20;;;0.20;;
20076;SDS011;12348;42.710;23.378;2023-08-06T10:24:52;0.63;;;0.63;;
20076;SDS011;12348;42.710;23.378;2023-08-06T10:27:21;0.73;;;0.73;;
20076;SDS011;12348;42.710;23.378;2023-08-06T10:29:48;0.30;;;0.30;;
20076;SDS011;12348;42.710;23.378;2023-08-06T10:32:15;0.17;;;0.17;;
20076;SDS011;12348;42.710;23.378;2023-08-06T10:34:56;0.10;;;0.10;;
20076;SDS011;12348;42.710;23.378;2023-08-06T10:37:24;0.57;;;0.47;;
20076;SDS011;12348;42.710;23.378;2023-08-06T10:40:02;0.27;;;0.27;;
20076;SDS011;12348;42.710;23.378;2023-08-06T10:42:32;0.83;;;0.83;;
20076;SDS011;12348;42.710;23.378;2023-08-06T10:47:44;1.40;;;0.83;;
20076;SDS011;12348;42.710;23.378;2023-08-06T10:50:12;0.10;;;0.10;;
20076;SDS011;12348;42.710;23.378;2023-08-06T10:52:43;0.63;;;0.60;;
20076;SDS011;12348;42.710;23.378;2023-08-06T10:55:11;0.30;;;0.30;;
20076;SDS011;12348;42.710;23.378;2023-08-06T10:57:38;0.30;;;0.30;;
20076;SDS011;12348;42.710;23.378;2023-08-06T11:00:05;1.57;;;0.63;;
20076;SDS011;12348;42.710;23.378;2023-08-06T11:02:33;0.00;;;0.00;;
20076;SDS011;12348;42.710;23.378;2023-08-06T11:05:10;0.40;;;0.30;;
20076;SDS011;12348;42.710;23.378;2023-08-06T11:07:37;1.40;;;0.43;;
20076;SDS011;12348;42.710;23.378;2023-08-06T11:10:05;0.70;;;0.57;;
20076;SDS011;12348;42.710;23.378;2023-08-06T11:12:36;0.00;;;0.00;;
20076;SDS011;12348;42.710;23.378;2023-08-06T11:15:04;1.40;;;1.30;;
20076;SDS011;12348;42.710;23.378;2023-08-06T11:17:32;1.40;;;0.77;;
20076;SDS011;12348;42.710;23.378;2023-08-06T11:20:00;0.47;;;0.47;;
20076;SDS011;12348;42.710;23.378;2023-08-06T11:22:28;0.23;;;0.23;;
20076;SDS011;12348;42.710;23.378;2023-08-06T11:24:55;0.77;;;0.47;;
20076;SDS011;12348;42.710;23.378;2023-08-06T11:27:22;0.30;;;0.30;;
20076;SDS011;12348;42.710;23.378;2023-08-06T11:29:50;0.50;;;0.50;;
20076;SDS011;12348;42.710;23.378;2023-08-06T11:32:16;0.13;;;0.13;;
20076;SDS011;12348;42.710;23.378;2023-08-06T11:34:43;1.83;;;0.20;;
20076;SDS011;12348;42.710;23.378;2023-08-06T11:37:10;0.20;;;0.20;;
20076;SDS011;12348;42.710;23.378;2023-08-06T11:39:37;0.20;;;0.20;;
20076;SDS011;12348;42.710;23.378;2023-08-06T11:42:05;0.57;;;0.33;;
20076;SDS011;12348;42.710;23.378;2023-08-06T11:44:34;0.67;;;0.67;;
20076;SDS011;12348;42.710;23.378;2023-08-06T11:47:04;0.20;;;0.13;;
20076;SDS011;12348;42.710;23.378;2023-08-06T11:49:37;0.20;;;0.20;;
20076;SDS011;12348;42.710;23.378;2023-08-06T11:52:10;1.00;;;0.47;;
20076;SDS011;12348;42.710;23.378;2023-08-06T11:54:39;0.50;;;0.50;;
20076;SDS011;12348;42.710;23.378;2023-08-06T11:57:06;0.00;;;0.00;;
20076;SDS011;12348;42.710;23.378;2023-08-06T11:59:33;0.30;;;0.30;;
20076;SDS011;12348;42.710;23.378;2023-08-06T12:02:00;1.60;;;0.50;;
20076;SDS011;12348;42.710;23.378;2023-08-06T12:04:29;0.10;;;0.10;;
20076;SDS011;12348;42.710;23.378;2023-08-06T12:06:56;0.87;;;0.80;;
20076;SDS011;12348;42.710;23.378;2023-08-06T12:09:31;0.00;;;0.00;;
20076;SDS011;12348;42.710;23.378;2023-08-06T12:11:58;2.67;;;1.13;;
20076;SDS011;12348;42.710;23.378;2023-08-06T12:14:25;0.00;;;0.00;;
20076;SDS011;12348;42.710;23.378;2023-08-06T12:16:52;1.23;;;0.60;;
20076;SDS011;12348;42.710;23.378;2023-08-06T12:19:18;0.60;;;0.40;;
20076;SDS011;12348;42.710;23.378;2023-08-06T12:21:48;0.17;;;0.17;;
20076;SDS011;12348;42.710;23.378;2023-08-06T12:24:15;0.63;;;0.63;;
20076;SDS011;12348;42.710;23.378;2023-08-06T12:26:42;0.57;;;0.57;;
20076;SDS011;12348;42.710;23.378;2023-08-06T12:29:08;1.07;;;0.97;;
20076;SDS011;12348;42.710;23.378;2023-08-06T12:31:35;0.50;;;0.50;;
20076;SDS011;12348;42.710;23.378;2023-08-06T12:34:02;0.10;;;0.10;;
20076;SDS011;12348;42.710;23.378;2023-08-06T12:36:28;2.40;;;1.03;;
20076;SDS011;12348;42.710;23.378;2023-08-06T12:38:58;0.30;;;0.10;;
20076;SDS011;12348;42.710;23.378;2023-08-06T12:41:24;0.10;;;0.10;;
20076;SDS011;12348;42.710;23.378;2023-08-06T12:43:51;0.20;;;0.17;;
20076;SDS011;12348;42.710;23.378;2023-08-06T12:46:18;0.00;;;0.00;;
20076;SDS011;12348;42.710;23.378;2023-08-06T12:48:44;0.00;;;0.00;;
20076;SDS011;12348;42.710;23.378;2023-08-06T12:51:11;0.00;;;0.00;;
20076;SDS011;12348;42.710;23.378;2023-08-06T12:53:37;0.20;;;0.20;;
20076;SDS011;12348;42.710;23.378;2023-08-06T12:56:06;1.97;;;0.40;;
20076;SDS011;12348;42.710;23.378;2023-08-06T12:58:32;0.67;;;0.67;;
20076;SDS011;12348;42.710;23.378;2023-08-06T13:00:59;0.00;;;0.00;;
20076;SDS011;12348;42.710;23.378;2023-08-06T13:03:26;0.10;;;0.10;;
20076;SDS011;12348;42.710;23.378;2023-08-06T13:05:52;0.23;;;0.23;;
20076;SDS011;12348;42.710;23.378;2023-08-06T13:08:19;0.13;;;0.13;;
20076;SDS011;12348;42.710;23.378;2023-08-06T13:10:46;0.43;;;0.43;;
20076;SDS011;12348;42.710;23.378;2023-08-06T13:13:14;0.10;;;0.10;;
20076;SDS011;12348;42.710;23.378;2023-08-06T13:15:43;0.33;;;0.33;;
20076;SDS011;12348;42.710;23.378;2023-08-06T13:18:10;0.10;;;0.10;;
20076;SDS011;12348;42.710;23.378;2023-08-06T13:20:37;0.93;;;0.87;;
20076;SDS011;12348;42.710;23.378;2023-08-06T13:23:05;2.83;;;0.73;;
20076;SDS011;12348;42.710;23.378;2023-08-06T13:25:32;0.27;;;0.27;;
20076;SDS011;12348;42.710;23.378;2023-08-06T13:28:02;0.23;;;0.23;;
20076;SDS011;12348;42.710;23.378;2023-08-06T13:30:30;0.17;;;0.17;;
20076;SDS011;12348;42.710;23.378;2023-08-06T13:32:57;0.10;;;0.10;;
20076;SDS011;12348;42.710;23.378;2023-08-06T13:35:23;1.93;;;0.63;;
20076;SDS011;12348;42.710;23.378;2023-08-06T13:37:50;0.00;;;0.00;;
20076;SDS011;12348;42.710;23.378;2023-08-06T13:40:17;0.23;;;0.17;;
20076;SDS011;12348;42.710;23.378;2023-08-06T13:42:44;0.10;;;0.10;;
20076;SDS011;12348;42.710;23.378;2023-08-06T13:45:11;0.07;;;0.07;;
20076;SDS011;12348;42.710;23.378;2023-08-06T13:47:39;2.27;;;0.93;;
20076;SDS011;12348;42.710;23.378;2023-08-06T13:50:07;1.43;;;1.20;;
20076;SDS011;12348;42.710;23.378;2023-08-06T13:52:34;9.53;;;3.77;;
20076;SDS011;12348;42.710;23.378;2023-08-06T13:55:01;4.47;;;0.40;;
20076;SDS011;12348;42.710;23.378;2023-08-06T13:57:29;0.10;;;0.10;;
20076;SDS011;12348;42.710;23.378;2023-08-06T13:59:56;0.50;;;0.47;;
20076;SDS011;12348;42.710;23.378;2023-08-06T14:02:23;0.77;;;0.73;;
20076;SDS011;12348;42.710;23.378;2023-08-06T14:04:52;0.07;;;0.07;;
20076;SDS011;12348;42.710;23.378;2023-08-06T14:07:18;0.10;;;0.10;;
20076;SDS011;12348;42.710;23.378;2023-08-06T14:09:45;10.23;;;1.10;;
20076;SDS011;12348;42.710;23.378;2023-08-06T14:12:12;0.00;;;0.00;;
20076;SDS011;12348;42.710;23.378;2023-08-06T14:14:39;0.10;;;0.10;;
20076;SDS011;12348;42.710;23.378;2023-08-06T14:17:05;0.23;;;0.23;;
20076;SDS011;12348;42.710;23.378;2023-08-06T14:19:33;0.70;;;0.70;;
20076;SDS011;12348;42.710;23.378;2023-08-06T14:22:01;1.60;;;0.93;;
20076;SDS011;12348;42.710;23.378;2023-08-06T14:24:28;1.33;;;0.90;;
20076;SDS011;12348;42.710;23.378;2023-08-06T14:26:54;1.27;;;1.17;;
20076;SDS011;12348;42.710;23.378;2023-08-06T14:29:21;0.27;;;0.27;;
20076;SDS011;12348;42.710;23.378;2023-08-06T14:31:49;0.10;;;0.10;;
20076;SDS011;12348;42.710;23.378;2023-08-06T14:34:16;0.37;;;0.37;;
20076;SDS011;12348;42.710;23.378;2023-08-06T14:36:43;0.70;;;0.70;;
20076;SDS011;12348;42.710;23.378;2023-08-06T14:39:11;0.83;;;0.83;;
20076;SDS011;12348;42.710;23.378;2023-08-06T14:41:38;1.80;;;1.23;;
20076;SDS011;12348;42.710;23.378;2023-08-06T14:44:05;1.40;;;0.80;;